createdAt,value
2022-11-22T00:03:40.037Z,98706.47
2022-11-22T00:08:33.289Z,98683.91
2022-11-22T00:13:25.025Z,98679.84
2022-11-22T00:18:16.570Z,98682.78
2022-11-22T00:23:08.151Z,98693.75
2022-11-22T00:27:59.732Z,98649.31
2022-11-22T00:32:51.298Z,98687.94
2022-11-22T00:37:42.869Z,98645.38
2022-11-22T00:42:34.421Z,98688.88
2022-11-22T00:47:25.920Z,98633.69
2022-11-22T00:52:17.467Z,98678.03
2022-11-22T00:57:09.018Z,98683.81
2022-11-22T01:02:00.597Z,98686.00
2022-11-22T01:06:52.169Z,98679.34
2022-11-22T01:11:44.348Z,98698.56
2022-11-22T01:16:36.048Z,98707.53
2022-11-22T01:21:27.729Z,98718.81
2022-11-22T01:26:19.476Z,98570.69
2022-11-22T01:31:10.992Z,98694.53
2022-11-22T01:36:02.630Z,98603.41
2022-11-22T01:40:54.350Z,98717.78
2022-11-22T01:45:51.451Z,98669.91
2022-11-22T01:50:45.922Z,98728.44
2022-11-22T01:55:37.528Z,98658.47
2022-11-22T02:00:29.086Z,98732.50
2022-11-22T02:05:24.085Z,98730.56
2022-11-22T02:10:18.751Z,98683.47
2022-11-22T02:15:11.536Z,98752.94
2022-11-22T02:20:06.596Z,98764.38
2022-11-22T02:25:28.057Z,98704.03
2022-11-22T02:30:19.761Z,98772.72
2022-11-22T02:35:30.434Z,98768.22
2022-11-22T02:40:23.216Z,98716.03
2022-11-22T02:45:14.898Z,98740.13
2022-11-22T02:50:07.348Z,98715.00
2022-11-22T02:54:58.880Z,98518.09
2022-11-22T02:59:50.389Z,98647.50
2022-11-22T03:04:41.962Z,98634.03
2022-11-22T03:09:33.733Z,98747.56
2022-11-22T03:14:25.693Z,98637.34
2022-11-22T03:19:17.678Z,98717.53
2022-11-22T03:24:10.409Z,98799.84
2022-11-22T03:29:02.352Z,98765.88
2022-11-22T03:33:54.290Z,98814.88
2022-11-22T03:38:45.934Z,98807.59
2022-11-22T03:43:38.110Z,98824.47
2022-11-22T03:48:29.839Z,98821.75
2022-11-22T03:53:21.456Z,98840.38
2022-11-22T03:58:12.998Z,98833.50
2022-11-22T04:03:04.543Z,98746.44
2022-11-22T04:07:58.912Z,98838.66
2022-11-22T04:12:50.490Z,98839.97
2022-11-22T04:17:45.073Z,98849.22
2022-11-22T04:22:36.620Z,98834.78
2022-11-22T04:27:28.134Z,98791.19
2022-11-22T04:32:38.441Z,98840.28
2022-11-22T04:37:30.005Z,98848.72
2022-11-22T04:42:40.150Z,98851.25
2022-11-22T04:48:07.053Z,98651.41
2022-11-22T04:52:59.084Z,98848.50
2022-11-22T04:57:55.949Z,98848.44
2022-11-22T05:02:50.657Z,98823.44
2022-11-22T05:07:42.285Z,98865.38
2022-11-22T05:12:33.884Z,98853.78
2022-11-22T05:17:25.525Z,98860.34
2022-11-22T05:22:17.186Z,98857.81
2022-11-22T05:27:08.732Z,98661.31
2022-11-22T05:32:00.314Z,98730.44
2022-11-22T05:36:51.872Z,98814.50
2022-11-22T05:41:55.772Z,98801.63
2022-11-22T05:46:47.543Z,98787.41
2022-11-22T05:51:39.095Z,98858.66
2022-11-22T05:56:30.694Z,98817.28
2022-11-22T06:01:24.200Z,98905.88
2022-11-22T06:06:16.349Z,98847.41
2022-11-22T06:11:12.991Z,98917.34
2022-11-22T06:16:06.454Z,98883.19
2022-11-22T06:20:59.982Z,98917.19
2022-11-22T06:25:59.698Z,98911.78
2022-11-22T06:30:51.189Z,98917.03
2022-11-22T06:35:42.709Z,98916.88
2022-11-22T06:40:34.217Z,98849.22
2022-11-22T06:45:25.790Z,98929.53
2022-11-22T06:50:21.548Z,98866.53
2022-11-22T06:55:42.458Z,98808.06
2022-11-22T07:00:25.165Z,98881.19
2022-11-22T07:05:31.895Z,98934.13
2022-11-22T07:10:23.447Z,98940.84
2022-11-22T07:15:14.984Z,98871.47
2022-11-22T07:20:07.037Z,98809.94
2022-11-22T07:24:58.536Z,98944.63
2022-11-22T07:29:50.173Z,98849.50
2022-11-22T07:34:41.804Z,98901.06
2022-11-22T07:39:33.391Z,98877.75
2022-11-22T07:44:24.909Z,98902.75
2022-11-22T07:49:16.569Z,98953.38
2022-11-22T07:54:12.122Z,98843.81
2022-11-22T07:59:03.995Z,98967.78
2022-11-22T08:03:56.543Z,98952.81
2022-11-22T08:08:48.162Z,98984.78
2022-11-22T08:13:39.880Z,98936.47
2022-11-22T08:18:31.557Z,98967.25
2022-11-22T08:23:23.056Z,98972.66
2022-11-22T08:28:14.701Z,98954.75
2022-11-22T08:33:06.198Z,98996.63
2022-11-22T08:37:58.131Z,98908.81
2022-11-22T08:42:49.747Z,98982.84
2022-11-22T08:47:41.311Z,98994.28
2022-11-22T08:52:34.560Z,98956.13
2022-11-22T08:57:26.123Z,98985.06
2022-11-22T09:02:17.705Z,98926.97
2022-11-22T09:12:22.086Z,98996.91
2022-11-22T09:17:17.794Z,98893.78
2022-11-22T09:22:09.925Z,98934.81
2022-11-22T09:27:01.480Z,99000.69
2022-11-22T09:31:53.097Z,99002.75
2022-11-22T09:36:44.714Z,98947.34
2022-11-22T09:41:47.206Z,99020.09
2022-11-22T09:47:05.125Z,98956.13
2022-11-22T09:52:19.847Z,99016.69
2022-11-22T09:57:24.926Z,98965.50
2022-11-22T10:02:25.553Z,98983.47
2022-11-22T10:07:40.717Z,98981.72
2022-11-22T10:12:41.947Z,98824.31
2022-11-22T10:17:59.211Z,98991.75
2022-11-22T10:22:51.229Z,98978.22
2022-11-22T10:27:44.221Z,98947.97
2022-11-22T10:32:46.505Z,98962.44
2022-11-22T10:37:57.942Z,98948.59
2022-11-22T10:43:28.626Z,98956.97
2022-11-22T10:48:42.468Z,98946.19
2022-11-22T10:53:50.292Z,98950.31
2022-11-22T10:59:32.001Z,98940.69
2022-11-22T11:04:27.977Z,98892.50
2022-11-22T11:10:09.826Z,98863.59
2022-11-22T11:15:13.253Z,98903.47
2022-11-22T11:20:17.362Z,98840.28
2022-11-22T11:25:35.059Z,98918.59
2022-11-22T11:30:26.770Z,98925.53
2022-11-22T11:35:21.817Z,98925.22
2022-11-22T11:40:32.056Z,98906.88
2022-11-22T11:45:29.157Z,98914.06
2022-11-22T11:50:24.561Z,98919.97
2022-11-22T11:55:17.412Z,98901.88
2022-11-22T12:00:34.877Z,98883.06
2022-11-22T12:05:32.191Z,98884.16
2022-11-22T12:10:47.025Z,98885.50
2022-11-22T12:15:59.963Z,98806.09
2022-11-22T12:20:57.579Z,98913.94
2022-11-22T12:25:53.356Z,98880.19
2022-11-22T12:30:53.022Z,98912.06
2022-11-22T12:35:46.238Z,98892.38
2022-11-22T12:40:44.938Z,98902.66
2022-11-22T12:45:42.611Z,98843.38
2022-11-22T12:50:41.655Z,98890.78
2022-11-22T12:56:02.559Z,98880.81
2022-11-22T13:01:24.604Z,98905.75
2022-11-22T13:06:21.808Z,98913.06
2022-11-22T13:11:27.526Z,98920.59
2022-11-22T13:16:19.068Z,98915.91
2022-11-22T13:21:29.378Z,98908.72
2022-11-22T13:26:39.182Z,98887.97
2022-11-22T13:31:30.930Z,98816.78
2022-11-22T13:36:31.598Z,98915.16
2022-11-22T13:41:29.013Z,98827.94
2022-11-22T13:46:46.895Z,98904.09
2022-11-22T13:51:56.058Z,98881.44
2022-11-22T13:56:58.417Z,98907.72
2022-11-22T14:01:50.677Z,98892.66
2022-11-22T14:07:10.901Z,98910.69
2022-11-22T14:12:11.301Z,98907.66
2022-11-22T14:17:21.993Z,98741.16
2022-11-22T14:22:20.825Z,98907.22
2022-11-22T14:27:26.921Z,98815.34
2022-11-22T14:32:20.719Z,98911.78
2022-11-22T14:37:15.524Z,98913.50
2022-11-22T14:42:43.712Z,98914.00
2022-11-22T14:47:36.787Z,98908.22
2022-11-22T14:52:32.461Z,98831.75
2022-11-22T14:57:26.691Z,98911.53
2022-11-22T15:02:27.499Z,98907.81
2022-11-22T15:09:12.371Z,98912.97
2022-11-22T15:13:42.216Z,98912.28
2022-11-22T16:00:30.322Z,98747.75
2022-11-22T16:06:05.383Z,98943.69
2022-11-22T16:10:49.914Z,98893.53
2022-11-22T16:15:42.027Z,98893.34
2022-11-22T16:20:38.685Z,98884.88
2022-11-22T16:25:35.065Z,98893.13
2022-11-22T16:30:26.905Z,98869.50
2022-11-22T16:35:30.378Z,98944.13
2022-11-22T16:40:21.991Z,98991.38
2022-11-22T16:45:16.521Z,98977.13
2022-11-22T16:50:11.923Z,98949.16
2022-11-22T16:55:04.068Z,98923.97
2022-11-22T16:59:55.720Z,99006.28
2022-11-22T17:04:48.964Z,99000.75
2022-11-22T17:09:41.068Z,98969.09
2022-11-22T17:14:32.887Z,98998.97
2022-11-22T17:19:51.443Z,98941.94
2022-11-22T17:24:36.177Z,99007.38
2022-11-22T17:29:49.715Z,99017.03
2022-11-22T17:34:39.295Z,98997.69
2022-11-22T17:39:31.025Z,98975.09
2022-11-22T17:44:22.759Z,98947.56
2022-11-22T17:49:16.332Z,98994.56
2022-11-22T17:54:09.135Z,99043.22
2022-11-22T17:59:00.711Z,98971.63
2022-11-22T18:03:52.389Z,99049.13
2022-11-22T18:08:47.158Z,99055.97
2022-11-22T18:13:40.753Z,99056.31
2022-11-22T18:18:55.536Z,98983.13
2022-11-22T18:23:45.211Z,99010.44
2022-11-22T18:28:39.355Z,99053.25
2022-11-22T18:33:34.627Z,99047.88
2022-11-22T18:38:26.734Z,99055.50
2022-11-22T18:43:18.402Z,99052.44
2022-11-22T18:48:10.068Z,99050.50
2022-11-22T18:53:01.652Z,99025.91
2022-11-22T18:57:53.352Z,99042.34
2022-11-22T19:02:44.960Z,99039.63
2022-11-22T19:07:36.704Z,99046.19
2022-11-22T19:12:29.197Z,99055.97
2022-11-22T19:17:22.153Z,99076.72
2022-11-22T19:22:14.229Z,99042.78
2022-11-22T19:27:05.960Z,99060.34
2022-11-22T19:31:57.550Z,99049.59
2022-11-22T19:36:49.110Z,99044.56
2022-11-22T19:41:44.843Z,99020.44
2022-11-22T19:46:38.501Z,99036.19
2022-11-22T19:51:31.328Z,99064.81
2022-11-22T19:56:22.894Z,99048.41
2022-11-22T20:01:15.556Z,99047.47
2022-11-22T20:06:09.046Z,98995.06
2022-11-22T20:11:06.512Z,99087.63
2022-11-22T20:15:58.110Z,99083.91
2022-11-22T20:20:49.737Z,99102.44
2022-11-22T20:25:41.515Z,99008.88
2022-11-22T20:30:34.416Z,99096.25
2022-11-22T20:35:26.009Z,99089.25
2022-11-22T20:40:17.659Z,99018.22
2022-11-22T20:45:09.365Z,99099.56
2022-11-22T20:50:01.022Z,99070.97
2022-11-22T20:54:52.592Z,99120.00
2022-11-22T20:59:44.272Z,99116.00
2022-11-22T21:04:36.118Z,99068.00
2022-11-22T21:09:27.807Z,99118.09
2022-11-22T21:14:20.744Z,99042.72
2022-11-22T21:19:12.888Z,99115.69
2022-11-22T21:24:06.117Z,99120.91
2022-11-22T21:28:59.359Z,99065.25
2022-11-22T21:33:51.646Z,99105.78
2022-11-22T21:38:43.304Z,99126.34
2022-11-22T21:43:35.100Z,99119.06
2022-11-22T21:48:26.719Z,99134.28
2022-11-22T21:53:18.341Z,99131.56
2022-11-22T21:58:09.908Z,99138.28
2022-11-22T22:03:01.421Z,99139.63
2022-11-22T22:07:53.376Z,99139.06
2022-11-22T22:12:44.993Z,99134.16
2022-11-22T22:17:36.549Z,99142.09
2022-11-22T22:22:28.054Z,99140.28
2022-11-22T22:27:19.667Z,98974.22
2022-11-22T22:32:11.240Z,99077.13
2022-11-22T22:37:02.802Z,99140.84
2022-11-22T22:41:54.333Z,99055.59
2022-11-22T22:46:45.921Z,99151.41
2022-11-22T22:51:37.443Z,99128.56
2022-11-22T22:56:30.529Z,99135.03
2022-11-22T23:01:24.516Z,99137.63
2022-11-22T23:06:16.832Z,99130.81
2022-11-22T23:11:10.978Z,99165.59
2022-11-22T23:16:04.137Z,99166.63
2022-11-22T23:20:59.850Z,99182.88
2022-11-22T23:25:51.408Z,99169.00
2022-11-22T23:30:42.982Z,99175.59
2022-11-22T23:35:35.469Z,99047.00
2022-11-22T23:40:27.022Z,99184.56
2022-11-22T23:45:18.598Z,99134.28
2022-11-22T23:50:10.220Z,99167.66
2022-11-22T23:55:02.113Z,99191.47
2022-11-22T23:59:53.602Z,99196.47
